Overview Statistics Trail Chart Weather Telemetry Raw packets
 

This is the latest recevied weather packets stored in our database for station/object DG9VH-13. If no packets are shown the sender has not sent any weather packets the latest 10 day(s).

<< 18 19 20 21 22 23 24 >>
Time Temp. Humidity Pressure Rain* Wind** Luminosity Snow
1788421804 31.11° C 37% 1008.3 hPa - - - -
1788421201 31.67° C 38% 1013.1 hPa - - - -
1788420602 25° C 46% 1004.9 hPa - - - -
1788420001 26.67° C 44% 1006.4 hPa - - - -
1788419400 26.11° C 43% 1004.7 hPa - - - -
1788418804 25° C 48% 1008.4 hPa - - - -
1788418201 18.33° C 62% 1008.2 hPa - - - -
1788417601 19.44° C 57% 1005 hPa - - - -
1788417001 24.44° C 48% 1003.7 hPa - - - -
1788416402 20° C 59% 1002.1 hPa - - - -
1788415801 16.67° C 68% 1004.6 hPa - - - -
1788415201 16.11° C 69% 1004.7 hPa - - - -
1788414601 15.56° C 69% 1004.7 hPa - - - -
1788414002 15.56° C 70% 1004.6 hPa - - - -
1788413400 15.56° C 70% 1004.5 hPa - - - -
1788412803 15° C 70% 1004.6 hPa - - - -
1788412201 15° C 70% 1004.7 hPa - - - -
1788411602 15.56° C 70% 1004.6 hPa - - - -
1788411001 15° C 70% 1004.7 hPa - - - -
1788410401 15° C 71% 1004.7 hPa - - - -
1788409801 15° C 70% 1004.8 hPa - - - -
1788409203 15.56° C 69% 1004.7 hPa - - - -
1788408601 15° C 70% 1004.5 hPa - - - -
1788408002 15° C 70% 1004.6 hPa - - - -
1788407401 15.56° C 69% 1004.6 hPa - - - -

* Rain since midnight (hover to see other rain measurements)
** Current wind speed in m/s (hover to see current wind gust speed)